createdAt,value
2019-03-21T00:01:26.182Z,6.47
2019-03-21T00:04:00.881Z,7.00
2019-03-21T00:06:37.183Z,6.75
2019-03-21T00:09:09.163Z,6.55
2019-03-21T00:12:03.791Z,7.17
2019-03-21T00:15:12.239Z,6.50
2019-03-21T00:17:54.170Z,6.97
2019-03-21T00:20:30.317Z,7.10
2019-03-21T00:23:13.203Z,6.87
2019-03-21T00:25:42.509Z,7.17
2019-03-21T00:28:11.767Z,7.10
2019-03-21T00:30:47.773Z,7.15
2019-03-21T00:33:17.028Z,7.85
2019-03-21T00:35:46.269Z,7.37
2019-03-21T00:38:22.260Z,7.00
2019-03-21T00:40:51.540Z,7.40
2019-03-21T00:43:33.524Z,8.10
2019-03-21T00:46:02.800Z,7.25
2019-03-21T00:48:32.055Z,7.47
2019-03-21T00:51:08.100Z,8.03
2019-03-21T00:53:37.917Z,7.65
2019-03-21T00:56:07.169Z,8.00
2019-03-21T00:58:42.601Z,7.40
2019-03-21T01:01:12.216Z,7.70
2019-03-21T01:03:41.578Z,8.08
2019-03-21T01:06:17.904Z,7.70
2019-03-21T01:08:47.127Z,8.23
2019-03-21T01:11:16.384Z,8.13
2019-03-21T01:13:52.569Z,7.85
2019-03-21T01:16:21.834Z,7.55
2019-03-21T01:18:51.061Z,7.90
2019-03-21T01:21:26.861Z,8.50
2019-03-21T01:24:03.399Z,8.00
2019-03-21T01:26:39.866Z,8.18
2019-03-21T01:29:09.104Z,8.30
2019-03-21T01:31:38.382Z,8.05
2019-03-21T01:34:14.880Z,8.68
2019-03-21T01:36:44.128Z,8.75
2019-03-21T01:39:13.488Z,8.70
2019-03-21T01:41:48.909Z,8.70
2019-03-21T01:44:25.034Z,9.55
2019-03-21T01:47:00.958Z,9.83
2019-03-21T01:49:30.188Z,9.35
2019-03-21T01:51:59.451Z,9.30
2019-03-21T01:54:35.546Z,9.80
2019-03-21T01:57:04.875Z,9.60
2019-03-21T01:59:34.137Z,9.43
2019-03-21T02:02:10.247Z,9.28
2019-03-21T02:04:39.622Z,9.85
2019-03-21T02:07:08.892Z,10.15
2019-03-21T02:09:45.167Z,9.73
2019-03-21T02:12:14.403Z,9.65
2019-03-21T02:14:51.842Z,9.55
2019-03-21T02:17:20.966Z,9.88
2019-03-21T02:19:57.340Z,10.03
2019-03-21T02:22:39.457Z,10.58
2019-03-21T02:25:11.986Z,9.70
2019-03-21T02:27:48.104Z,10.30
2019-03-21T02:30:19.804Z,10.67
2019-03-21T02:32:50.938Z,10.20
2019-03-21T02:35:27.174Z,10.32
2019-03-21T02:37:56.448Z,10.40
2019-03-21T02:40:25.732Z,11.48
2019-03-21T02:43:02.826Z,11.15
2019-03-21T02:45:38.373Z,10.78
2019-03-21T02:48:13.816Z,11.00
2019-03-21T02:50:43.092Z,10.93
2019-03-21T02:53:12.485Z,11.07
2019-03-21T02:55:48.927Z,10.68
2019-03-21T02:58:18.192Z,11.10
2019-03-21T03:00:47.674Z,11.30
2019-03-21T03:03:23.317Z,11.68
2019-03-21T03:05:52.643Z,11.35
2019-03-21T03:08:22.038Z,11.60
2019-03-21T03:10:59.438Z,11.10
2019-03-21T03:13:28.725Z,11.73
2019-03-21T03:15:58.060Z,11.28
2019-03-21T03:18:33.720Z,12.00
2019-03-21T03:21:09.066Z,11.83
2019-03-21T03:23:50.834Z,12.97
2019-03-21T03:26:20.134Z,11.40
2019-03-21T03:28:49.389Z,11.13
2019-03-21T03:31:24.863Z,12.07
2019-03-21T03:33:54.210Z,12.68
2019-03-21T03:36:23.502Z,12.05
2019-03-21T03:38:59.765Z,12.05
2019-03-21T03:41:29.030Z,12.33
2019-03-21T03:43:58.308Z,12.70
2019-03-21T03:46:41.022Z,12.88
2019-03-21T03:49:10.383Z,12.13
2019-03-21T03:51:39.634Z,12.53
2019-03-21T03:54:15.333Z,13.08
2019-03-21T03:56:44.593Z,12.75
2019-03-21T03:59:13.957Z,12.35
2019-03-21T04:01:50.927Z,12.93
2019-03-21T04:04:20.533Z,12.55
2019-03-21T04:06:49.798Z,12.23
2019-03-21T04:09:26.051Z,12.58
2019-03-21T04:11:55.594Z,13.33
2019-03-21T04:14:24.902Z,13.20
2019-03-21T04:17:01.027Z,13.00
2019-03-21T04:19:30.345Z,12.53
2019-03-21T04:22:13.041Z,12.53
2019-03-21T04:24:49.025Z,12.57
2019-03-21T04:27:24.467Z,13.57
2019-03-21T04:29:53.842Z,12.63
2019-03-21T04:32:23.131Z,12.65
2019-03-21T04:34:59.354Z,12.47
2019-03-21T04:37:28.669Z,13.10
2019-03-21T04:39:57.970Z,12.23
2019-03-21T04:42:33.730Z,12.63
2019-03-21T04:45:03.058Z,12.75
2019-03-21T04:47:45.267Z,12.43
2019-03-21T04:50:17.168Z,12.60
2019-03-21T04:52:46.436Z,12.43
2019-03-21T04:55:22.238Z,13.35
2019-03-21T04:57:51.528Z,12.35
2019-03-21T05:00:23.494Z,13.35
2019-03-21T05:03:00.296Z,12.78
2019-03-21T05:05:29.596Z,12.63
2019-03-21T05:07:59.137Z,13.10
2019-03-21T05:10:34.915Z,12.63
2019-03-21T05:13:04.283Z,12.75
2019-03-21T05:15:36.009Z,13.48
2019-03-21T05:18:15.301Z,12.47
2019-03-21T05:20:44.540Z,12.80
2019-03-21T05:23:26.796Z,13.05
2019-03-21T05:26:04.078Z,12.37
2019-03-21T05:28:40.031Z,12.82
2019-03-21T05:31:16.367Z,13.03
2019-03-21T05:33:52.725Z,12.73
2019-03-21T05:36:22.850Z,13.13
2019-03-21T05:39:04.829Z,13.17
2019-03-21T05:41:34.169Z,12.03
2019-03-21T05:44:15.627Z,12.28
2019-03-21T05:46:44.876Z,12.90
2019-03-21T05:49:27.045Z,12.97
2019-03-21T05:51:56.430Z,12.40
2019-03-21T05:54:25.711Z,12.53
2019-03-21T05:57:02.079Z,12.70
2019-03-21T05:59:31.356Z,12.75
2019-03-21T06:02:02.914Z,12.75
2019-03-21T06:04:39.177Z,13.17
2019-03-21T06:07:21.659Z,12.58
2019-03-21T06:09:57.943Z,13.13
2019-03-21T06:12:27.198Z,12.00
2019-03-21T06:14:59.282Z,11.85
2019-03-21T06:17:35.926Z,12.55
2019-03-21T06:20:16.700Z,12.33
2019-03-21T06:23:11.252Z,11.85
2019-03-21T06:25:52.872Z,12.43
2019-03-21T06:28:29.030Z,12.03
2019-03-21T06:30:58.259Z,11.70
2019-03-21T06:33:27.504Z,11.70
2019-03-21T06:36:03.653Z,12.25
2019-03-21T06:38:35.505Z,11.33
2019-03-21T06:41:05.639Z,12.03
2019-03-21T06:43:41.274Z,12.00
2019-03-21T06:46:10.503Z,11.40
2019-03-21T06:48:39.769Z,11.43
2019-03-21T06:51:22.149Z,11.65
2019-03-21T06:53:52.496Z,11.90
2019-03-21T06:56:21.760Z,11.05
2019-03-21T06:58:58.052Z,11.15
2019-03-21T07:01:27.300Z,11.08
2019-03-21T07:04:06.554Z,10.78
2019-03-21T07:06:34.297Z,10.72
2019-03-21T07:09:05.557Z,10.88
2019-03-21T07:11:34.834Z,9.70
2019-03-21T07:14:10.909Z,9.85
2019-03-21T07:16:40.212Z,9.45
2019-03-21T07:19:09.515Z,9.30
2019-03-21T07:21:45.986Z,9.33
2019-03-21T07:24:22.208Z,9.58
2019-03-21T07:27:04.553Z,9.15
2019-03-21T07:29:33.767Z,9.90
2019-03-21T07:32:03.031Z,9.38
2019-03-21T07:34:39.539Z,9.68
2019-03-21T07:37:08.824Z,9.30
2019-03-21T07:39:38.100Z,9.63
2019-03-21T07:42:14.857Z,8.95
2019-03-21T07:44:44.103Z,9.45
2019-03-21T07:47:13.593Z,9.03
2019-03-21T07:49:49.838Z,9.28
2019-03-21T07:52:26.054Z,8.90
2019-03-21T07:55:02.237Z,9.28
2019-03-21T07:57:31.524Z,8.85
2019-03-21T08:00:00.747Z,8.23
2019-03-21T08:02:36.359Z,8.90
2019-03-21T08:05:06.663Z,8.75
2019-03-21T08:07:35.918Z,8.73
2019-03-21T08:10:12.796Z,8.93
2019-03-21T08:12:42.110Z,9.13
2019-03-21T08:15:11.742Z,9.00
2019-03-21T08:17:48.065Z,9.35
2019-03-21T08:20:18.145Z,9.10
2019-03-21T08:22:47.391Z,9.70
2019-03-21T08:25:23.033Z,8.68
2019-03-21T08:27:59.304Z,9.08
2019-03-21T08:30:47.013Z,9.13
2019-03-21T08:33:16.257Z,9.63
2019-03-21T08:35:45.513Z,9.28
2019-03-21T08:38:21.666Z,8.95
2019-03-21T08:40:50.955Z,9.28
2019-03-21T08:43:20.224Z,9.68
2019-03-21T08:45:56.054Z,9.03
2019-03-21T08:48:25.332Z,9.10
2019-03-21T08:50:54.546Z,8.35
2019-03-21T08:53:36.829Z,9.35
2019-03-21T08:56:06.456Z,8.68
2019-03-21T08:58:35.725Z,9.05
2019-03-21T09:01:12.440Z,8.83
2019-03-21T09:03:41.692Z,8.90
2019-03-21T09:06:10.931Z,9.10
2019-03-21T09:08:46.554Z,8.90
2019-03-21T09:11:15.844Z,8.30
2019-03-21T09:13:45.089Z,7.80
2019-03-21T09:16:21.107Z,8.33
2019-03-21T09:18:50.379Z,7.78
2019-03-21T09:21:20.193Z,8.03
2019-03-21T09:23:56.370Z,8.30
2019-03-21T09:26:31.878Z,8.55
2019-03-21T09:29:07.762Z,7.97
2019-03-21T09:31:36.996Z,7.00
2019-03-21T09:34:06.329Z,7.12
2019-03-21T09:36:41.758Z,7.37
2019-03-21T09:39:11.085Z,6.62
2019-03-21T09:41:40.331Z,6.25
2019-03-21T09:44:15.763Z,5.87
2019-03-21T09:46:50.878Z,5.77
2019-03-21T09:49:15.991Z,5.97
2019-03-21T09:51:51.886Z,5.78
2019-03-21T09:54:27.762Z,5.47
2019-03-21T09:57:03.738Z,5.00
2019-03-21T09:59:33.017Z,5.67
2019-03-21T10:02:02.268Z,5.80
2019-03-21T10:04:37.839Z,5.62
2019-03-21T10:07:07.114Z,5.85
2019-03-21T10:09:36.346Z,5.97
2019-03-21T10:12:12.359Z,5.20
2019-03-21T10:14:41.597Z,5.40
2019-03-21T10:17:10.822Z,5.47
2019-03-21T10:19:48.348Z,5.70
2019-03-21T10:22:17.186Z,5.75
2019-03-21T10:24:59.927Z,5.78
2019-03-21T10:27:36.364Z,5.70
2019-03-21T10:30:13.729Z,5.60
2019-03-21T10:32:42.993Z,5.90
2019-03-21T10:35:12.247Z,6.03
2019-03-21T10:37:47.895Z,5.92
2019-03-21T10:40:17.120Z,6.10
2019-03-21T10:42:46.389Z,5.92
2019-03-21T10:45:22.172Z,5.60
2019-03-21T10:47:51.452Z,6.10
2019-03-21T10:50:37.762Z,5.40
2019-03-21T10:53:09.483Z,5.50
2019-03-21T10:55:52.093Z,5.00
2019-03-21T10:58:21.363Z,5.08
2019-03-21T11:00:50.647Z,4.95
2019-03-21T11:03:27.706Z,5.12
2019-03-21T11:05:56.942Z,5.95
2019-03-21T11:08:26.202Z,5.20
2019-03-21T11:11:01.598Z,5.10
2019-03-21T11:13:30.956Z,5.42
2019-03-21T11:16:00.256Z,5.25
2019-03-21T11:18:36.440Z,5.87
2019-03-21T11:21:05.808Z,5.40
2019-03-21T11:23:35.034Z,5.40
2019-03-21T11:26:10.724Z,5.50
2019-03-21T11:28:46.102Z,5.40
2019-03-21T11:31:22.343Z,5.12
2019-03-21T11:33:51.568Z,5.63
2019-03-21T11:36:20.847Z,5.20
2019-03-21T11:38:56.747Z,5.30
2019-03-21T11:41:26.014Z,5.33
2019-03-21T11:43:55.330Z,5.10
2019-03-21T11:46:31.418Z,5.47
2019-03-21T11:49:00.753Z,5.15
2019-03-21T11:51:30.100Z,4.87
2019-03-21T11:54:06.484Z,5.40
2019-03-21T11:56:42.509Z,5.53
2019-03-21T11:59:19.406Z,6.22
2019-03-21T12:01:48.711Z,5.95
2019-03-21T12:04:17.956Z,5.60
2019-03-21T12:06:53.820Z,5.67
2019-03-21T12:09:23.108Z,5.85
2019-03-21T12:11:52.455Z,5.72
2019-03-21T12:14:28.727Z,5.65
2019-03-21T12:16:58.072Z,5.72
2019-03-21T12:19:27.549Z,5.97
2019-03-21T12:22:03.321Z,6.25
2019-03-21T12:24:32.722Z,6.00
2019-03-21T12:27:15.456Z,6.05
2019-03-21T12:29:51.350Z,5.78
2019-03-21T12:32:27.465Z,5.85
2019-03-21T12:34:56.789Z,5.92
2019-03-21T12:37:26.098Z,5.83
2019-03-21T12:40:01.568Z,5.35
2019-03-21T12:42:30.799Z,5.77
2019-03-21T12:45:00.361Z,5.53
2019-03-21T12:47:36.575Z,5.42
2019-03-21T12:50:07.376Z,5.28
2019-03-21T12:55:14.730Z,5.55
2019-03-21T12:57:50.870Z,5.53
2019-03-21T13:00:39.913Z,4.90
2019-03-21T13:03:09.615Z,4.92
2019-03-21T13:05:39.665Z,5.53
2019-03-21T13:07:13.063Z,5.70
2019-03-21T13:08:15.310Z,6.10
2019-03-21T13:10:44.712Z,5.65
2019-03-21T13:13:14.039Z,6.00
2019-03-21T13:15:49.836Z,5.72
2019-03-21T13:18:19.089Z,5.95
2019-03-21T13:20:48.411Z,5.75
2019-03-21T13:23:23.883Z,6.37
2019-03-21T13:25:59.804Z,6.97
2019-03-21T13:28:43.341Z,6.78
2019-03-21T13:31:12.677Z,7.12
2019-03-21T13:33:42.023Z,7.17
2019-03-21T13:36:17.857Z,7.03
2019-03-21T13:38:47.059Z,6.85
2019-03-21T13:41:16.388Z,7.58
2019-03-21T13:43:52.447Z,7.33
2019-03-21T13:46:21.712Z,6.95
2019-03-21T13:48:50.912Z,7.67
2019-03-21T13:51:26.550Z,7.53
2019-03-21T13:53:55.727Z,8.00
2019-03-21T13:56:24.938Z,7.80
2019-03-21T13:59:07.485Z,7.40
2019-03-21T14:01:36.696Z,7.80
2019-03-21T14:04:05.890Z,7.78
2019-03-21T14:06:41.557Z,7.97
2019-03-21T14:09:10.876Z,7.40
2019-03-21T14:11:40.178Z,7.37
2019-03-21T14:14:15.910Z,8.50
2019-03-21T14:16:45.193Z,7.62
2019-03-21T14:19:14.565Z,8.28
2019-03-21T14:21:50.667Z,7.78
2019-03-21T14:24:19.975Z,7.75
2019-03-21T14:27:02.194Z,8.23
2019-03-21T14:29:38.180Z,7.50
2019-03-21T14:32:15.255Z,8.53
2019-03-21T14:34:44.508Z,7.83
2019-03-21T14:37:13.767Z,8.10
2019-03-21T14:39:49.967Z,8.20
2019-03-21T14:42:19.292Z,7.50
2019-03-21T14:44:48.595Z,7.97
2019-03-21T14:47:35.591Z,7.90
2019-03-21T14:49:55.449Z,8.18
2019-03-21T14:52:24.692Z,8.20
2019-03-21T14:55:01.122Z,7.62
2019-03-21T14:57:30.669Z,7.83
2019-03-21T15:00:16.242Z,7.28
2019-03-21T15:02:45.659Z,7.60
2019-03-21T15:05:15.598Z,7.35
2019-03-21T15:07:51.782Z,7.87
2019-03-21T15:10:21.081Z,7.67
2019-03-21T15:12:50.413Z,7.58
2019-03-21T15:15:27.544Z,7.50
2019-03-21T15:17:58.703Z,6.95
2019-03-21T15:20:28.406Z,6.92
2019-03-21T15:23:04.840Z,7.42
2019-03-21T15:25:34.173Z,7.10
2019-03-21T15:28:17.184Z,7.40
2019-03-21T15:30:53.489Z,7.67
2019-03-21T15:33:29.450Z,7.03
2019-03-21T15:35:58.675Z,7.47
2019-03-21T15:38:28.017Z,7.08
2019-03-21T15:41:03.475Z,7.55
2019-03-21T15:43:32.832Z,7.03
2019-03-21T15:46:02.099Z,6.92
2019-03-21T15:48:38.420Z,7.12
2019-03-21T15:51:07.711Z,6.90
2019-03-21T15:53:36.997Z,7.33
2019-03-21T15:56:12.851Z,7.50
2019-03-21T15:58:42.443Z,7.70
2019-03-21T16:01:24.779Z,6.67
2019-03-21T16:03:54.609Z,7.20
2019-03-21T16:06:24.677Z,6.80
2019-03-21T16:09:00.748Z,6.70
2019-03-21T16:11:29.982Z,6.75
2019-03-21T16:13:59.240Z,6.78
2019-03-21T16:16:34.934Z,6.95
2019-03-21T16:19:04.233Z,6.47
2019-03-21T16:21:46.885Z,6.87
2019-03-21T16:24:16.118Z,7.15
2019-03-21T16:26:45.342Z,6.70
2019-03-21T16:29:21.644Z,7.50
2019-03-21T16:31:57.103Z,6.75
2019-03-21T16:34:32.683Z,7.08
2019-03-21T16:37:02.264Z,6.72
2019-03-21T16:39:31.546Z,7.30
2019-03-21T16:42:08.040Z,7.22
2019-03-21T16:44:37.409Z,7.00
2019-03-21T16:47:06.695Z,7.25
2019-03-21T16:49:42.881Z,7.72
2019-03-21T16:52:12.171Z,6.85
2019-03-21T16:54:41.413Z,7.37
2019-03-21T16:57:17.835Z,7.37
2019-03-21T16:59:47.192Z,7.90
2019-03-21T17:02:31.404Z,7.47
2019-03-21T17:05:00.557Z,7.70
2019-03-21T17:07:29.992Z,8.38
2019-03-21T17:10:07.328Z,7.50
2019-03-21T17:12:36.856Z,7.37
2019-03-21T17:15:06.752Z,7.85
2019-03-21T17:17:43.085Z,7.80
2019-03-21T17:20:13.916Z,7.95
2019-03-21T17:22:43.381Z,7.55
2019-03-21T17:25:19.746Z,7.80
2019-03-21T17:27:49.265Z,7.78
2019-03-21T17:30:31.941Z,7.97
2019-03-21T17:33:08.419Z,8.08
2019-03-21T17:35:44.473Z,7.67
2019-03-21T17:38:13.773Z,7.78
2019-03-21T17:40:43.104Z,7.78
2019-03-21T17:43:19.283Z,8.00
2019-03-21T17:45:48.664Z,7.58
2019-03-21T17:48:17.951Z,7.92
2019-03-21T17:50:54.293Z,7.83
2019-03-21T17:53:23.524Z,8.00
2019-03-21T17:55:52.819Z,7.50
2019-03-21T17:58:29.026Z,8.48
2019-03-21T18:00:58.346Z,8.10
2019-03-21T18:03:41.604Z,8.05
2019-03-21T18:06:10.899Z,8.23
2019-03-21T18:08:40.125Z,8.18
2019-03-21T18:11:16.152Z,8.17
2019-03-21T18:13:45.397Z,8.47
2019-03-21T18:16:35.374Z,8.63
2019-03-21T18:19:11.779Z,8.20
2019-03-21T18:21:47.295Z,8.78
2019-03-21T18:24:16.521Z,9.00
2019-03-21T18:26:46.053Z,8.55
2019-03-21T18:29:22.286Z,8.68
2019-03-21T18:31:58.631Z,8.13
2019-03-21T18:34:34.766Z,8.70
2019-03-21T18:37:04.039Z,8.33
2019-03-21T18:39:33.401Z,9.53
2019-03-21T18:42:09.218Z,9.35
2019-03-21T18:44:41.088Z,9.00
2019-03-21T18:47:10.719Z,9.03
2019-03-21T18:49:46.583Z,9.73
2019-03-21T18:52:16.287Z,9.75
2019-03-21T18:54:45.597Z,9.30
2019-03-21T18:57:23.158Z,8.90
2019-03-21T18:59:53.305Z,9.23
2019-03-21T19:02:22.689Z,9.73
2019-03-21T19:05:04.638Z,10.20
2019-03-21T19:07:33.910Z,9.83
2019-03-21T19:10:03.559Z,10.23
2019-03-21T19:12:39.495Z,10.00
2019-03-21T19:15:10.188Z,9.55
2019-03-21T19:17:39.463Z,10.13
2019-03-21T19:20:16.053Z,9.68
2019-03-21T19:22:45.432Z,9.35
2019-03-21T19:25:18.949Z,9.93
2019-03-21T19:27:53.325Z,11.03
2019-03-21T19:30:29.622Z,9.88
2019-03-21T19:33:11.884Z,10.50
2019-03-21T19:35:43.752Z,10.32
2019-03-21T19:38:12.988Z,10.58
2019-03-21T19:40:49.203Z,11.80
2019-03-21T19:43:18.463Z,11.12
2019-03-21T19:45:47.751Z,11.38
2019-03-21T19:48:23.756Z,11.88
2019-03-21T19:50:53.060Z,12.10
2019-03-21T19:53:24.178Z,12.33
2019-03-21T19:56:08.444Z,11.45
2019-03-21T19:58:30.880Z,13.18
2019-03-21T20:01:00.317Z,12.80
2019-03-21T20:03:36.839Z,12.82
2019-03-21T20:06:12.588Z,12.90
2019-03-21T20:08:48.691Z,12.90
2019-03-21T20:11:17.922Z,12.97
2019-03-21T20:13:50.835Z,12.70
2019-03-21T20:16:27.257Z,13.45
2019-03-21T20:18:57.754Z,12.75
2019-03-21T20:21:29.984Z,12.33
2019-03-21T20:24:06.260Z,13.43
2019-03-21T20:26:35.659Z,12.73
2019-03-21T20:29:09.555Z,12.90
2019-03-21T20:31:48.811Z,13.25
2019-03-21T20:34:25.227Z,13.10
2019-03-21T20:37:01.010Z,13.30
2019-03-21T20:39:30.325Z,12.93
2019-03-21T20:42:00.647Z,13.33
2019-03-21T20:44:36.815Z,13.13
2019-03-21T20:47:06.125Z,14.28
2019-03-21T20:49:35.368Z,14.83
2019-03-21T20:52:10.779Z,14.85
2019-03-21T20:54:40.037Z,14.83
2019-03-21T20:57:09.365Z,14.03
2019-03-21T20:59:45.124Z,13.90
2019-03-21T21:02:14.712Z,14.28
2019-03-21T21:04:44.124Z,13.50
2019-03-21T21:07:26.627Z,13.68
2019-03-21T21:09:55.926Z,13.90
2019-03-21T21:12:25.159Z,13.62
2019-03-21T21:15:01.269Z,14.38
2019-03-21T21:17:30.557Z,14.33
2019-03-21T21:20:00.504Z,13.13
2019-03-21T21:22:35.912Z,13.80
2019-03-21T21:25:06.111Z,13.48
2019-03-21T21:27:35.373Z,13.88
2019-03-21T21:30:11.821Z,13.32
2019-03-21T21:32:48.550Z,13.28
2019-03-21T21:35:31.168Z,13.35
2019-03-21T21:38:00.400Z,13.80
2019-03-21T21:40:32.621Z,14.13
2019-03-21T21:43:09.078Z,12.98
2019-03-21T21:45:38.397Z,13.45
2019-03-21T21:48:07.794Z,13.72
2019-03-21T21:50:43.972Z,12.75
2019-03-21T21:53:13.999Z,13.90
2019-03-21T21:55:43.259Z,14.40
2019-03-21T21:58:20.317Z,14.18
2019-03-21T22:00:49.700Z,14.30
2019-03-21T22:03:19.072Z,13.75
2019-03-21T22:05:55.487Z,14.55
2019-03-21T22:08:31.698Z,14.47
2019-03-21T22:11:07.595Z,14.45
2019-03-21T22:13:36.858Z,14.25
2019-03-21T22:16:06.114Z,14.37
2019-03-21T22:18:42.501Z,14.10
2019-03-21T22:21:11.766Z,14.87
2019-03-21T22:23:41.004Z,14.47
2019-03-21T22:26:16.422Z,14.68
2019-03-21T22:28:45.661Z,14.57
2019-03-21T22:31:29.646Z,13.75
2019-03-21T22:34:08.149Z,14.83
2019-03-21T22:36:49.238Z,14.35
2019-03-21T22:39:15.235Z,14.43
2019-03-21T22:41:44.495Z,14.70
2019-03-21T22:44:20.388Z,14.50
2019-03-21T22:46:49.645Z,13.98
2019-03-21T22:49:18.929Z,13.62
2019-03-21T22:51:55.195Z,13.93
2019-03-21T22:54:24.453Z,13.40
2019-03-21T22:56:53.763Z,14.60
2019-03-21T22:59:29.167Z,13.90
2019-03-21T23:01:58.418Z,13.97
2019-03-21T23:04:27.717Z,13.68
2019-03-21T23:07:03.278Z,13.25
2019-03-21T23:09:39.396Z,14.03
2019-03-21T23:12:14.756Z,14.58
2019-03-21T23:14:44.032Z,14.07
2019-03-21T23:17:13.471Z,13.93
2019-03-21T23:19:49.312Z,14.77
2019-03-21T23:22:18.540Z,14.65
2019-03-21T23:24:47.808Z,14.45
2019-03-21T23:27:23.896Z,14.43
2019-03-21T23:29:53.112Z,14.73
2019-03-21T23:32:35.725Z,14.47
2019-03-21T23:35:12.246Z,14.73
2019-03-21T23:37:47.939Z,13.80
2019-03-21T23:40:17.438Z,13.95
2019-03-21T23:42:46.870Z,13.90
2019-03-21T23:45:23.196Z,13.93
2019-03-21T23:47:52.580Z,13.10
2019-03-21T23:50:22.151Z,13.98
2019-03-21T23:52:57.861Z,14.03
2019-03-21T23:55:27.241Z,12.93
2019-03-21T23:57:57.040Z,13.68
